San Luis Potosi, Mexico

1:26 AM CDT on August 30, 2014 (GMT -0500)
Ponciano Arriaga International | Change Station
CLOSE
Current Station
Airport
Location: San Luis Potosi,
Elevation: 6033 ft
Nearby Weather Stations

Elev 6033 ft 22.26 °N, 100.93 °W | Updated 1 hour ago

Mostly Cloudy
Mostly Cloudy
66 °F
Feels Like 66 °F
N
9
Wind Variable Wind from SE

Today
High -- | Low -- °F
--% Chance of Precip.
Yesterday
High -- | Low -- °F
Precip. -- in
7:25 AM 8:02 PM
Waxing Crescent, 19% visible
Pressure 30.19 in
Visibility 12.0 miles
Clouds Scattered Clouds 2500 ft
Mostly Cloudy 8000 ft
Mostly Cloudy 20000 ft
Dew Point 57 °F
Humidity 73%
Rainfall 0.00 in
Snow Depth Not available.
UV 0 out of 12
Pollen Not available.
Air Quality Not available.
Flu Activity Not available.
METAR MMSP 300440Z 13008KT 12SM SCT025 BKN080 BKN200 19/14 A3019 RMK 8/463

More Conditions Fewer Conditions

Pressure 30.19 in
Visibility 12.0 miles
Clouds Scattered Clouds 2500 ft
Mostly Cloudy 8000 ft
Mostly Cloudy 20000 ft
Dew Point 57 °F
Humidity 73%
Rainfall 0.00 in
Snow Depth Not available.
UV 0 out of 12
Pollen Not available.
Air Quality Not available.
Flu Activity Not available.
METAR MMSP 300440Z 13008KT 12SM SCT025 BKN080 BKN200 19/14 A3019 RMK 8/463

More Conditions Fewer Conditions

10-Day Weather Forecast

Almanac

Astronomy

Aug. 30, 2014 Rise Set
Actual Time 7:25 AM CDT 8:02 PM CDT
Civil Twilight 7:03 AM CDT 8:24 PM CDT
Nautical Twilight 6:36 AM CDT 8:51 PM CDT
Astronomical Twilight 6:09 AM CDT 9:18 PM CDT
Moon 11:37 AM CDT 11:17 PM CDT
Length of Visible Light 13h 21m
Length of Day
12h 36m
Tomorrow will be 1m 13s shorter.
Waxing Crescent, 19% of the Moon is Illuminated
Today
Waxing Crescent
Sep 2
First Quarter
Sep 8
Full
Sep 15
Last Quarter
Sep 24
New

Yesterday's Extremes

Country Highs Country Lows

Community

WunderPhotos

Upload Photos

1,748,465 photos uploaded!

Nearby

Snow Depth

Not available.

Earthquake Activity

City Distance Mag. Time & Date
No recent earthquake activity has been reported nearby.
Minimum magnitude displayed is 2.5.

Coastal Water Temperatures

Place Temperature
No Stations Reporting

Nearby Weather Stations